sensor_id;sensor_type;location;lat;lon;timestamp;P1;durP1;ratioP1;P2;durP2;ratioP2
67278;SDS011;54193;53.746;10.058;2023-05-10T00:00:11;5.78;;;2.85;;
67278;SDS011;54193;53.746;10.058;2023-05-10T00:02:57;7.38;;;4.90;;
67278;SDS011;54193;53.746;10.058;2023-05-10T00:05:43;8.87;;;4.53;;
67278;SDS011;54193;53.746;10.058;2023-05-10T00:08:28;8.98;;;5.60;;
67278;SDS011;54193;53.746;10.058;2023-05-10T00:11:14;5.80;;;2.78;;
67278;SDS011;54193;53.746;10.058;2023-05-10T00:14:00;9.00;;;4.72;;
67278;SDS011;54193;53.746;10.058;2023-05-10T00:16:45;8.07;;;3.53;;
67278;SDS011;54193;53.746;10.058;2023-05-10T00:19:31;9.07;;;5.60;;
67278;SDS011;54193;53.746;10.058;2023-05-10T00:22:17;6.75;;;3.65;;
67278;SDS011;54193;53.746;10.058;2023-05-10T00:25:03;11.33;;;5.93;;
67278;SDS011;54193;53.746;10.058;2023-05-10T00:27:49;5.93;;;3.17;;
67278;SDS011;54193;53.746;10.058;2023-05-10T00:30:35;6.80;;;3.53;;
67278;SDS011;54193;53.746;10.058;2023-05-10T00:33:20;8.40;;;5.00;;
67278;SDS011;54193;53.746;10.058;2023-05-10T00:36:06;9.00;;;4.87;;
67278;SDS011;54193;53.746;10.058;2023-05-10T00:38:53;6.38;;;3.15;;
67278;SDS011;54193;53.746;10.058;2023-05-10T00:41:39;6.25;;;3.03;;
67278;SDS011;54193;53.746;10.058;2023-05-10T00:44:24;5.90;;;3.08;;
67278;SDS011;54193;53.746;10.058;2023-05-10T00:47:10;8.37;;;3.90;;
67278;SDS011;54193;53.746;10.058;2023-05-10T00:49:56;8.82;;;5.10;;
67278;SDS011;54193;53.746;10.058;2023-05-10T00:52:42;5.82;;;3.03;;
67278;SDS011;54193;53.746;10.058;2023-05-10T00:55:28;8.07;;;4.57;;
67278;SDS011;54193;53.746;10.058;2023-05-10T00:58:14;6.07;;;2.70;;
67278;SDS011;54193;53.746;10.058;2023-05-10T01:01:00;7.45;;;3.65;;
67278;SDS011;54193;53.746;10.058;2023-05-10T01:03:46;8.70;;;4.28;;
67278;SDS011;54193;53.746;10.058;2023-05-10T01:06:32;8.43;;;3.88;;
67278;SDS011;54193;53.746;10.058;2023-05-10T01:09:17;7.20;;;3.50;;
67278;SDS011;54193;53.746;10.058;2023-05-10T01:12:04;7.50;;;4.10;;
67278;SDS011;54193;53.746;10.058;2023-05-10T01:14:52;6.57;;;3.50;;
67278;SDS011;54193;53.746;10.058;2023-05-10T01:17:39;9.73;;;4.63;;
67278;SDS011;54193;53.746;10.058;2023-05-10T01:20:27;7.80;;;3.72;;
67278;SDS011;54193;53.746;10.058;2023-05-10T01:23:30;7.28;;;3.67;;
67278;SDS011;54193;53.746;10.058;2023-05-10T01:26:33;7.30;;;3.50;;
67278;SDS011;54193;53.746;10.058;2023-05-10T01:33:00;7.72;;;4.18;;
67278;SDS011;54193;53.746;10.058;2023-05-10T01:35:58;7.07;;;3.17;;
67278;SDS011;54193;53.746;10.058;2023-05-10T01:38:47;4.63;;;2.17;;
67278;SDS011;54193;53.746;10.058;2023-05-10T01:41:41;6.65;;;3.97;;
67278;SDS011;54193;53.746;10.058;2023-05-10T01:44:39;8.43;;;4.50;;
67278;SDS011;54193;53.746;10.058;2023-05-10T01:47:40;5.88;;;3.20;;
67278;SDS011;54193;53.746;10.058;2023-05-10T01:50:29;7.75;;;3.75;;
67278;SDS011;54193;53.746;10.058;2023-05-10T01:53:17;7.10;;;3.58;;
67278;SDS011;54193;53.746;10.058;2023-05-10T01:56:04;7.88;;;4.20;;
67278;SDS011;54193;53.746;10.058;2023-05-10T01:58:50;7.33;;;3.57;;
67278;SDS011;54193;53.746;10.058;2023-05-10T02:01:38;10.13;;;4.22;;
67278;SDS011;54193;53.746;10.058;2023-05-10T02:04:25;7.47;;;3.58;;
67278;SDS011;54193;53.746;10.058;2023-05-10T02:07:11;7.55;;;3.85;;
67278;SDS011;54193;53.746;10.058;2023-05-10T02:09:58;7.13;;;3.70;;
67278;SDS011;54193;53.746;10.058;2023-05-10T02:12:44;6.10;;;2.80;;
67278;SDS011;54193;53.746;10.058;2023-05-10T02:15:33;4.63;;;2.35;;
67278;SDS011;54193;53.746;10.058;2023-05-10T02:18:20;7.53;;;3.27;;
67278;SDS011;54193;53.746;10.058;2023-05-10T02:21:08;7.05;;;3.30;;
67278;SDS011;54193;53.746;10.058;2023-05-10T02:23:56;5.13;;;2.58;;
67278;SDS011;54193;53.746;10.058;2023-05-10T02:26:43;5.65;;;2.92;;
67278;SDS011;54193;53.746;10.058;2023-05-10T02:29:31;9.33;;;4.77;;
67278;SDS011;54193;53.746;10.058;2023-05-10T02:32:17;7.57;;;3.58;;
67278;SDS011;54193;53.746;10.058;2023-05-10T02:35:05;7.78;;;4.18;;
67278;SDS011;54193;53.746;10.058;2023-05-10T02:37:51;7.68;;;4.80;;
67278;SDS011;54193;53.746;10.058;2023-05-10T02:40:38;7.72;;;3.33;;
67278;SDS011;54193;53.746;10.058;2023-05-10T02:43:26;7.78;;;4.32;;
67278;SDS011;54193;53.746;10.058;2023-05-10T02:46:15;6.13;;;2.78;;
67278;SDS011;54193;53.746;10.058;2023-05-10T02:49:00;7.30;;;3.57;;
67278;SDS011;54193;53.746;10.058;2023-05-10T02:51:55;6.00;;;3.03;;
67278;SDS011;54193;53.746;10.058;2023-05-10T02:54:45;10.15;;;5.43;;
67278;SDS011;54193;53.746;10.058;2023-05-10T02:57:36;6.85;;;3.28;;
67278;SDS011;54193;53.746;10.058;2023-05-10T03:00:27;7.00;;;3.50;;
67278;SDS011;54193;53.746;10.058;2023-05-10T03:03:13;6.90;;;3.38;;
67278;SDS011;54193;53.746;10.058;2023-05-10T03:05:58;8.35;;;3.50;;
67278;SDS011;54193;53.746;10.058;2023-05-10T03:08:44;9.50;;;4.10;;
67278;SDS011;54193;53.746;10.058;2023-05-10T03:11:37;7.22;;;3.97;;
67278;SDS011;54193;53.746;10.058;2023-05-10T03:20:55;7.50;;;3.60;;
67278;SDS011;54193;53.746;10.058;2023-05-10T03:23:48;5.32;;;3.70;;
67278;SDS011;54193;53.746;10.058;2023-05-10T03:26:38;9.40;;;4.18;;
67278;SDS011;54193;53.746;10.058;2023-05-10T03:29:25;10.03;;;4.80;;
67278;SDS011;54193;53.746;10.058;2023-05-10T03:32:12;7.82;;;3.83;;
67278;SDS011;54193;53.746;10.058;2023-05-10T03:34:57;8.50;;;3.53;;
67278;SDS011;54193;53.746;10.058;2023-05-10T03:37:43;5.73;;;3.03;;
67278;SDS011;54193;53.746;10.058;2023-05-10T03:40:28;5.30;;;2.92;;
67278;SDS011;54193;53.746;10.058;2023-05-10T03:43:16;9.45;;;4.93;;
67278;SDS011;54193;53.746;10.058;2023-05-10T03:46:05;8.77;;;3.83;;
67278;SDS011;54193;53.746;10.058;2023-05-10T03:48:51;8.38;;;4.22;;
67278;SDS011;54193;53.746;10.058;2023-05-10T03:51:36;7.82;;;4.03;;
67278;SDS011;54193;53.746;10.058;2023-05-10T03:54:22;8.68;;;3.50;;
67278;SDS011;54193;53.746;10.058;2023-05-10T03:57:08;6.43;;;3.60;;
67278;SDS011;54193;53.746;10.058;2023-05-10T03:59:54;8.43;;;3.88;;
67278;SDS011;54193;53.746;10.058;2023-05-10T04:02:40;6.47;;;3.70;;
67278;SDS011;54193;53.746;10.058;2023-05-10T04:05:26;5.88;;;2.85;;
67278;SDS011;54193;53.746;10.058;2023-05-10T04:08:11;10.07;;;5.72;;
67278;SDS011;54193;53.746;10.058;2023-05-10T04:11:10;10.65;;;5.55;;
67278;SDS011;54193;53.746;10.058;2023-05-10T04:13:57;5.78;;;3.13;;
67278;SDS011;54193;53.746;10.058;2023-05-10T04:16:43;9.90;;;4.67;;
67278;SDS011;54193;53.746;10.058;2023-05-10T04:19:29;7.88;;;4.70;;
67278;SDS011;54193;53.746;10.058;2023-05-10T04:22:15;7.82;;;3.20;;
67278;SDS011;54193;53.746;10.058;2023-05-10T04:25:01;8.33;;;3.67;;
67278;SDS011;54193;53.746;10.058;2023-05-10T04:27:47;7.45;;;2.90;;
67278;SDS011;54193;53.746;10.058;2023-05-10T04:30:32;7.63;;;3.42;;
67278;SDS011;54193;53.746;10.058;2023-05-10T04:33:18;6.40;;;2.92;;
67278;SDS011;54193;53.746;10.058;2023-05-10T04:36:04;11.73;;;4.70;;
67278;SDS011;54193;53.746;10.058;2023-05-10T04:38:50;8.25;;;4.18;;
67278;SDS011;54193;53.746;10.058;2023-05-10T04:41:37;8.63;;;4.47;;
67278;SDS011;54193;53.746;10.058;2023-05-10T04:44:23;12.33;;;4.27;;
67278;SDS011;54193;53.746;10.058;2023-05-10T04:47:09;7.32;;;3.53;;
67278;SDS011;54193;53.746;10.058;2023-05-10T04:49:54;9.52;;;3.00;;
67278;SDS011;54193;53.746;10.058;2023-05-10T04:52:40;9.02;;;4.20;;
67278;SDS011;54193;53.746;10.058;2023-05-10T04:55:26;8.45;;;4.10;;
67278;SDS011;54193;53.746;10.058;2023-05-10T04:58:12;7.97;;;3.92;;
67278;SDS011;54193;53.746;10.058;2023-05-10T05:01:04;6.05;;;3.45;;
67278;SDS011;54193;53.746;10.058;2023-05-10T05:03:51;8.23;;;4.17;;
67278;SDS011;54193;53.746;10.058;2023-05-10T05:06:38;8.00;;;3.72;;
67278;SDS011;54193;53.746;10.058;2023-05-10T05:09:23;9.80;;;5.22;;
67278;SDS011;54193;53.746;10.058;2023-05-10T05:12:09;8.65;;;4.45;;
67278;SDS011;54193;53.746;10.058;2023-05-10T05:14:59;9.95;;;4.97;;
67278;SDS011;54193;53.746;10.058;2023-05-10T05:17:44;8.25;;;3.65;;
67278;SDS011;54193;53.746;10.058;2023-05-10T05:20:31;9.23;;;4.97;;
67278;SDS011;54193;53.746;10.058;2023-05-10T05:23:18;10.80;;;4.67;;
67278;SDS011;54193;53.746;10.058;2023-05-10T05:26:05;9.77;;;5.45;;
67278;SDS011;54193;53.746;10.058;2023-05-10T05:28:51;8.35;;;4.03;;
67278;SDS011;54193;53.746;10.058;2023-05-10T05:31:39;8.65;;;4.00;;
67278;SDS011;54193;53.746;10.058;2023-05-10T05:34:25;7.07;;;3.50;;
67278;SDS011;54193;53.746;10.058;2023-05-10T05:37:14;7.63;;;3.90;;
67278;SDS011;54193;53.746;10.058;2023-05-10T05:40:01;9.00;;;5.03;;
67278;SDS011;54193;53.746;10.058;2023-05-10T05:42:47;7.43;;;3.17;;
67278;SDS011;54193;53.746;10.058;2023-05-10T05:45:32;7.32;;;4.25;;
67278;SDS011;54193;53.746;10.058;2023-05-10T05:48:18;7.07;;;3.83;;
67278;SDS011;54193;53.746;10.058;2023-05-10T05:51:03;9.18;;;4.38;;
67278;SDS011;54193;53.746;10.058;2023-05-10T05:53:49;9.35;;;4.95;;
67278;SDS011;54193;53.746;10.058;2023-05-10T05:56:35;10.07;;;5.97;;
67278;SDS011;54193;53.746;10.058;2023-05-10T05:59:20;8.20;;;3.60;;
67278;SDS011;54193;53.746;10.058;2023-05-10T06:02:07;6.73;;;3.37;;
67278;SDS011;54193;53.746;10.058;2023-05-10T06:04:53;7.88;;;4.57;;
67278;SDS011;54193;53.746;10.058;2023-05-10T06:07:39;9.18;;;4.38;;
67278;SDS011;54193;53.746;10.058;2023-05-10T06:10:27;8.10;;;3.55;;
67278;SDS011;54193;53.746;10.058;2023-05-10T06:13:13;8.37;;;4.33;;
67278;SDS011;54193;53.746;10.058;2023-05-10T06:15:58;8.45;;;4.15;;
67278;SDS011;54193;53.746;10.058;2023-05-10T06:18:44;11.13;;;4.82;;
67278;SDS011;54193;53.746;10.058;2023-05-10T06:21:29;7.18;;;3.97;;
67278;SDS011;54193;53.746;10.058;2023-05-10T06:24:15;7.97;;;4.47;;
67278;SDS011;54193;53.746;10.058;2023-05-10T06:27:01;9.95;;;4.47;;
67278;SDS011;54193;53.746;10.058;2023-05-10T06:29:47;5.78;;;3.50;;
67278;SDS011;54193;53.746;10.058;2023-05-10T06:32:32;7.33;;;3.83;;
67278;SDS011;54193;53.746;10.058;2023-05-10T06:35:18;7.45;;;4.35;;
67278;SDS011;54193;53.746;10.058;2023-05-10T06:38:04;6.55;;;3.75;;
67278;SDS011;54193;53.746;10.058;2023-05-10T06:40:50;8.05;;;4.40;;
67278;SDS011;54193;53.746;10.058;2023-05-10T06:43:35;9.40;;;4.00;;
67278;SDS011;54193;53.746;10.058;2023-05-10T06:46:25;7.75;;;4.55;;
67278;SDS011;54193;53.746;10.058;2023-05-10T06:49:11;7.32;;;4.70;;
67278;SDS011;54193;53.746;10.058;2023-05-10T06:51:56;6.55;;;3.50;;
67278;SDS011;54193;53.746;10.058;2023-05-10T06:54:42;9.90;;;4.03;;
67278;SDS011;54193;53.746;10.058;2023-05-10T06:57:27;8.75;;;5.35;;
67278;SDS011;54193;53.746;10.058;2023-05-10T07:00:14;8.10;;;4.82;;
67278;SDS011;54193;53.746;10.058;2023-05-10T07:03:00;6.75;;;3.92;;
67278;SDS011;54193;53.746;10.058;2023-05-10T07:05:46;9.63;;;4.55;;
67278;SDS011;54193;53.746;10.058;2023-05-10T07:08:31;7.57;;;4.60;;
67278;SDS011;54193;53.746;10.058;2023-05-10T07:11:17;8.10;;;4.70;;
67278;SDS011;54193;53.746;10.058;2023-05-10T07:14:03;9.05;;;5.20;;
67278;SDS011;54193;53.746;10.058;2023-05-10T07:16:49;7.97;;;5.20;;
67278;SDS011;54193;53.746;10.058;2023-05-10T07:19:34;7.93;;;4.82;;
67278;SDS011;54193;53.746;10.058;2023-05-10T07:22:21;8.10;;;3.85;;
67278;SDS011;54193;53.746;10.058;2023-05-10T07:25:06;7.65;;;4.03;;
67278;SDS011;54193;53.746;10.058;2023-05-10T07:27:55;7.28;;;4.07;;
67278;SDS011;54193;53.746;10.058;2023-05-10T07:30:41;8.50;;;5.20;;
67278;SDS011;54193;53.746;10.058;2023-05-10T07:33:27;6.68;;;3.88;;
67278;SDS011;54193;53.746;10.058;2023-05-10T07:36:13;7.95;;;4.03;;
67278;SDS011;54193;53.746;10.058;2023-05-10T07:38:59;6.47;;;3.80;;
67278;SDS011;54193;53.746;10.058;2023-05-10T07:41:45;9.37;;;5.30;;
67278;SDS011;54193;53.746;10.058;2023-05-10T07:44:31;8.00;;;4.70;;
67278;SDS011;54193;53.746;10.058;2023-05-10T07:47:16;7.72;;;4.85;;
67278;SDS011;54193;53.746;10.058;2023-05-10T07:50:02;8.20;;;4.53;;
67278;SDS011;54193;53.746;10.058;2023-05-10T07:52:48;7.60;;;3.70;;
67278;SDS011;54193;53.746;10.058;2023-05-10T07:55:33;7.65;;;3.50;;
67278;SDS011;54193;53.746;10.058;2023-05-10T07:58:19;8.80;;;4.22;;
67278;SDS011;54193;53.746;10.058;2023-05-10T08:01:05;8.13;;;4.43;;
67278;SDS011;54193;53.746;10.058;2023-05-10T08:03:51;7.32;;;4.55;;
67278;SDS011;54193;53.746;10.058;2023-05-10T08:06:38;7.70;;;5.17;;
67278;SDS011;54193;53.746;10.058;2023-05-10T08:09:24;6.82;;;3.97;;
67278;SDS011;54193;53.746;10.058;2023-05-10T08:12:10;7.72;;;4.13;;
67278;SDS011;54193;53.746;10.058;2023-05-10T08:14:56;9.50;;;3.90;;
67278;SDS011;54193;53.746;10.058;2023-05-10T08:17:42;8.60;;;4.37;;
67278;SDS011;54193;53.746;10.058;2023-05-10T08:20:28;7.72;;;4.13;;
67278;SDS011;54193;53.746;10.058;2023-05-10T08:23:14;8.15;;;4.32;;
67278;SDS011;54193;53.746;10.058;2023-05-10T08:25:59;7.68;;;4.18;;
67278;SDS011;54193;53.746;10.058;2023-05-10T08:28:45;9.23;;;5.03;;
67278;SDS011;54193;53.746;10.058;2023-05-10T08:31:31;9.10;;;5.43;;
67278;SDS011;54193;53.746;10.058;2023-05-10T08:34:16;7.93;;;5.43;;
67278;SDS011;54193;53.746;10.058;2023-05-10T08:37:02;9.57;;;5.05;;
67278;SDS011;54193;53.746;10.058;2023-05-10T08:39:48;9.57;;;5.90;;
67278;SDS011;54193;53.746;10.058;2023-05-10T08:42:34;8.23;;;4.33;;
67278;SDS011;54193;53.746;10.058;2023-05-10T08:45:22;13.48;;;5.50;;
67278;SDS011;54193;53.746;10.058;2023-05-10T08:48:09;7.18;;;4.20;;
67278;SDS011;54193;53.746;10.058;2023-05-10T08:50:55;11.38;;;5.40;;
67278;SDS011;54193;53.746;10.058;2023-05-10T08:53:45;9.07;;;4.80;;
67278;SDS011;54193;53.746;10.058;2023-05-10T08:56:31;8.68;;;5.32;;
67278;SDS011;54193;53.746;10.058;2023-05-10T08:59:17;8.32;;;4.68;;
67278;SDS011;54193;53.746;10.058;2023-05-10T09:02:02;7.88;;;4.38;;
67278;SDS011;54193;53.746;10.058;2023-05-10T09:04:50;10.50;;;5.43;;
67278;SDS011;54193;53.746;10.058;2023-05-10T09:07:36;8.90;;;5.20;;
67278;SDS011;54193;53.746;10.058;2023-05-10T09:10:22;9.35;;;5.45;;
67278;SDS011;54193;53.746;10.058;2023-05-10T09:13:08;8.32;;;4.97;;
67278;SDS011;54193;53.746;10.058;2023-05-10T09:15:55;9.20;;;5.50;;
67278;SDS011;54193;53.746;10.058;2023-05-10T09:18:41;10.30;;;4.57;;
67278;SDS011;54193;53.746;10.058;2023-05-10T09:21:27;15.00;;;5.80;;
67278;SDS011;54193;53.746;10.058;2023-05-10T09:24:12;9.77;;;5.35;;
67278;SDS011;54193;53.746;10.058;2023-05-10T09:26:58;8.60;;;5.40;;
67278;SDS011;54193;53.746;10.058;2023-05-10T09:29:43;8.07;;;4.30;;
67278;SDS011;54193;53.746;10.058;2023-05-10T09:32:47;10.27;;;5.90;;
67278;SDS011;54193;53.746;10.058;2023-05-10T09:35:33;8.50;;;4.68;;
67278;SDS011;54193;53.746;10.058;2023-05-10T09:38:19;8.57;;;4.75;;
67278;SDS011;54193;53.746;10.058;2023-05-10T09:41:14;12.60;;;6.43;;
67278;SDS011;54193;53.746;10.058;2023-05-10T09:44:02;8.45;;;3.78;;
67278;SDS011;54193;53.746;10.058;2023-05-10T09:46:50;8.75;;;4.95;;
67278;SDS011;54193;53.746;10.058;2023-05-10T09:49:37;10.25;;;5.90;;
67278;SDS011;54193;53.746;10.058;2023-05-10T09:52:23;9.40;;;5.63;;
67278;SDS011;54193;53.746;10.058;2023-05-10T09:55:09;9.98;;;5.70;;
67278;SDS011;54193;53.746;10.058;2023-05-10T09:58:01;11.05;;;5.32;;
67278;SDS011;54193;53.746;10.058;2023-05-10T10:00:47;10.65;;;5.45;;
67278;SDS011;54193;53.746;10.058;2023-05-10T10:03:40;9.33;;;4.97;;
67278;SDS011;54193;53.746;10.058;2023-05-10T10:06:27;10.27;;;5.60;;
67278;SDS011;54193;53.746;10.058;2023-05-10T10:09:13;9.25;;;5.90;;
67278;SDS011;54193;53.746;10.058;2023-05-10T10:11:59;9.35;;;5.55;;
67278;SDS011;54193;53.746;10.058;2023-05-10T10:14:46;9.18;;;5.47;;
67278;SDS011;54193;53.746;10.058;2023-05-10T10:17:36;8.90;;;5.60;;
67278;SDS011;54193;53.746;10.058;2023-05-10T10:20:23;9.40;;;5.15;;
67278;SDS011;54193;53.746;10.058;2023-05-10T10:23:10;10.33;;;5.60;;
67278;SDS011;54193;53.746;10.058;2023-05-10T10:25:56;10.18;;;5.18;;
67278;SDS011;54193;53.746;10.058;2023-05-10T10:28:48;11.57;;;5.95;;
67278;SDS011;54193;53.746;10.058;2023-05-10T10:31:55;8.88;;;4.88;;
67278;SDS011;54193;53.746;10.058;2023-05-10T10:34:55;11.07;;;6.60;;
67278;SDS011;54193;53.746;10.058;2023-05-10T10:37:45;10.57;;;6.32;;
67278;SDS011;54193;53.746;10.058;2023-05-10T10:40:32;11.05;;;7.20;;
67278;SDS011;54193;53.746;10.058;2023-05-10T10:43:25;12.13;;;6.68;;
67278;SDS011;54193;53.746;10.058;2023-05-10T10:46:13;12.43;;;6.47;;
67278;SDS011;54193;53.746;10.058;2023-05-10T10:49:09;14.40;;;7.50;;
67278;SDS011;54193;53.746;10.058;2023-05-10T10:55:09;14.52;;;9.13;;
67278;SDS011;54193;53.746;10.058;2023-05-10T10:57:56;15.47;;;9.30;;
67278;SDS011;54193;53.746;10.058;2023-05-10T11:00:49;17.33;;;9.52;;
67278;SDS011;54193;53.746;10.058;2023-05-10T11:03:35;18.70;;;10.07;;
67278;SDS011;54193;53.746;10.058;2023-05-10T11:09:19;16.70;;;9.73;;
67278;SDS011;54193;53.746;10.058;2023-05-10T11:12:07;17.23;;;10.07;;
67278;SDS011;54193;53.746;10.058;2023-05-10T11:14:56;17.65;;;10.05;;
67278;SDS011;54193;53.746;10.058;2023-05-10T11:17:42;17.35;;;9.85;;
67278;SDS011;54193;53.746;10.058;2023-05-10T11:20:28;18.63;;;11.00;;
67278;SDS011;54193;53.746;10.058;2023-05-10T11:23:28;20.00;;;11.13;;
67278;SDS011;54193;53.746;10.058;2023-05-10T11:26:18;19.58;;;10.48;;
67278;SDS011;54193;53.746;10.058;2023-05-10T11:29:04;19.75;;;10.50;;
67278;SDS011;54193;53.746;10.058;2023-05-10T11:31:50;18.75;;;10.20;;
67278;SDS011;54193;53.746;10.058;2023-05-10T11:34:36;16.42;;;8.27;;
67278;SDS011;54193;53.746;10.058;2023-05-10T11:37:21;20.55;;;8.80;;
67278;SDS011;54193;53.746;10.058;2023-05-10T11:40:07;22.27;;;11.18;;
67278;SDS011;54193;53.746;10.058;2023-05-10T11:42:55;22.23;;;9.23;;
67278;SDS011;54193;53.746;10.058;2023-05-10T11:45:41;20.08;;;9.55;;
67278;SDS011;54193;53.746;10.058;2023-05-10T11:48:29;15.50;;;8.60;;
67278;SDS011;54193;53.746;10.058;2023-05-10T11:51:14;19.20;;;10.75;;
67278;SDS011;54193;53.746;10.058;2023-05-10T11:54:00;20.77;;;11.10;;
67278;SDS011;54193;53.746;10.058;2023-05-10T11:56:46;17.67;;;9.95;;
67278;SDS011;54193;53.746;10.058;2023-05-10T11:59:31;18.90;;;10.68;;
67278;SDS011;54193;53.746;10.058;2023-05-10T12:02:17;14.00;;;7.53;;
67278;SDS011;54193;53.746;10.058;2023-05-10T12:05:03;19.35;;;10.45;;
67278;SDS011;54193;53.746;10.058;2023-05-10T12:07:50;16.40;;;8.82;;
67278;SDS011;54193;53.746;10.058;2023-05-10T12:10:36;15.00;;;8.32;;
67278;SDS011;54193;53.746;10.058;2023-05-10T12:13:21;15.27;;;8.65;;
67278;SDS011;54193;53.746;10.058;2023-05-10T12:16:14;14.83;;;8.67;;
67278;SDS011;54193;53.746;10.058;2023-05-10T12:19:00;19.10;;;10.02;;
67278;SDS011;54193;53.746;10.058;2023-05-10T12:21:45;17.65;;;9.40;;
67278;SDS011;54193;53.746;10.058;2023-05-10T12:24:36;17.73;;;9.47;;
67278;SDS011;54193;53.746;10.058;2023-05-10T12:27:23;15.68;;;7.57;;
67278;SDS011;54193;53.746;10.058;2023-05-10T12:30:09;18.98;;;9.38;;
67278;SDS011;54193;53.746;10.058;2023-05-10T12:33:13;16.48;;;9.43;;
67278;SDS011;54193;53.746;10.058;2023-05-10T12:36:02;17.20;;;9.13;;
67278;SDS011;54193;53.746;10.058;2023-05-10T12:38:48;17.67;;;10.77;;
67278;SDS011;54193;53.746;10.058;2023-05-10T12:41:33;19.77;;;11.32;;
67278;SDS011;54193;53.746;10.058;2023-05-10T12:44:19;22.58;;;13.18;;
67278;SDS011;54193;53.746;10.058;2023-05-10T12:47:05;22.52;;;11.88;;
67278;SDS011;54193;53.746;10.058;2023-05-10T12:49:52;21.80;;;12.40;;
67278;SDS011;54193;53.746;10.058;2023-05-10T12:52:37;22.95;;;13.32;;
67278;SDS011;54193;53.746;10.058;2023-05-10T12:55:23;22.67;;;12.13;;
67278;SDS011;54193;53.746;10.058;2023-05-10T12:58:09;23.38;;;12.70;;
67278;SDS011;54193;53.746;10.058;2023-05-10T13:00:54;22.40;;;13.30;;
67278;SDS011;54193;53.746;10.058;2023-05-10T13:03:41;20.60;;;11.63;;
67278;SDS011;54193;53.746;10.058;2023-05-10T13:06:28;20.42;;;12.20;;
67278;SDS011;54193;53.746;10.058;2023-05-10T13:09:14;19.90;;;11.23;;
67278;SDS011;54193;53.746;10.058;2023-05-10T13:12:00;21.90;;;13.13;;
67278;SDS011;54193;53.746;10.058;2023-05-10T13:14:46;17.67;;;10.15;;
67278;SDS011;54193;53.746;10.058;2023-05-10T13:17:31;20.70;;;11.88;;
67278;SDS011;54193;53.746;10.058;2023-05-10T13:20:17;18.33;;;9.95;;
67278;SDS011;54193;53.746;10.058;2023-05-10T13:23:03;16.53;;;8.50;;
67278;SDS011;54193;53.746;10.058;2023-05-10T13:25:48;20.25;;;11.30;;
67278;SDS011;54193;53.746;10.058;2023-05-10T13:28:34;19.65;;;10.98;;
67278;SDS011;54193;53.746;10.058;2023-05-10T13:31:21;19.02;;;10.85;;
67278;SDS011;54193;53.746;10.058;2023-05-10T13:34:07;18.23;;;11.53;;
67278;SDS011;54193;53.746;10.058;2023-05-10T13:36:53;18.77;;;11.20;;
67278;SDS011;54193;53.746;10.058;2023-05-10T13:39:39;19.85;;;11.20;;
67278;SDS011;54193;53.746;10.058;2023-05-10T13:42:24;18.42;;;10.63;;
67278;SDS011;54193;53.746;10.058;2023-05-10T13:45:10;15.45;;;9.70;;
67278;SDS011;54193;53.746;10.058;2023-05-10T13:47:59;15.67;;;8.73;;
67278;SDS011;54193;53.746;10.058;2023-05-10T13:50:44;17.35;;;10.30;;
67278;SDS011;54193;53.746;10.058;2023-05-10T13:53:30;17.33;;;10.02;;
67278;SDS011;54193;53.746;10.058;2023-05-10T13:56:16;15.57;;;9.40;;
67278;SDS011;54193;53.746;10.058;2023-05-10T13:59:01;18.07;;;9.77;;
67278;SDS011;54193;53.746;10.058;2023-05-10T14:01:47;14.85;;;8.95;;
67278;SDS011;54193;53.746;10.058;2023-05-10T14:04:33;13.00;;;7.72;;
67278;SDS011;54193;53.746;10.058;2023-05-10T14:07:20;15.65;;;8.68;;
67278;SDS011;54193;53.746;10.058;2023-05-10T14:10:06;15.60;;;8.55;;
67278;SDS011;54193;53.746;10.058;2023-05-10T14:12:52;13.82;;;8.82;;
67278;SDS011;54193;53.746;10.058;2023-05-10T14:15:38;14.48;;;8.13;;
67278;SDS011;54193;53.746;10.058;2023-05-10T14:18:24;12.55;;;7.70;;
67278;SDS011;54193;53.746;10.058;2023-05-10T14:21:09;12.68;;;8.10;;
67278;SDS011;54193;53.746;10.058;2023-05-10T14:23:55;14.48;;;8.60;;
67278;SDS011;54193;53.746;10.058;2023-05-10T14:26:41;10.40;;;5.57;;
67278;SDS011;54193;53.746;10.058;2023-05-10T14:29:26;14.15;;;7.93;;
67278;SDS011;54193;53.746;10.058;2023-05-10T14:32:12;10.63;;;4.93;;
67278;SDS011;54193;53.746;10.058;2023-05-10T14:34:58;14.63;;;8.00;;
67278;SDS011;54193;53.746;10.058;2023-05-10T14:37:44;14.07;;;7.95;;
67278;SDS011;54193;53.746;10.058;2023-05-10T14:40:30;12.93;;;7.70;;
67278;SDS011;54193;53.746;10.058;2023-05-10T14:43:16;11.93;;;7.30;;
67278;SDS011;54193;53.746;10.058;2023-05-10T14:46:01;11.80;;;7.23;;
67278;SDS011;54193;53.746;10.058;2023-05-10T14:48:47;6.95;;;4.10;;
67278;SDS011;54193;53.746;10.058;2023-05-10T14:51:33;11.80;;;6.97;;
67278;SDS011;54193;53.746;10.058;2023-05-10T14:54:18;13.25;;;7.43;;
67278;SDS011;54193;53.746;10.058;2023-05-10T14:57:04;12.98;;;7.82;;
67278;SDS011;54193;53.746;10.058;2023-05-10T14:59:50;13.43;;;7.43;;
67278;SDS011;54193;53.746;10.058;2023-05-10T15:02:36;11.88;;;7.28;;
67278;SDS011;54193;53.746;10.058;2023-05-10T15:05:22;12.05;;;6.57;;
67278;SDS011;54193;53.746;10.058;2023-05-10T15:08:07;10.00;;;5.95;;
67278;SDS011;54193;53.746;10.058;2023-05-10T15:10:54;12.20;;;8.13;;
67278;SDS011;54193;53.746;10.058;2023-05-10T15:13:41;11.65;;;7.88;;
67278;SDS011;54193;53.746;10.058;2023-05-10T15:16:26;11.45;;;6.80;;
67278;SDS011;54193;53.746;10.058;2023-05-10T15:19:12;12.43;;;8.32;;
67278;SDS011;54193;53.746;10.058;2023-05-10T15:21:57;13.75;;;8.25;;
67278;SDS011;54193;53.746;10.058;2023-05-10T15:24:43;12.60;;;8.37;;
67278;SDS011;54193;53.746;10.058;2023-05-10T15:27:29;14.68;;;8.32;;
67278;SDS011;54193;53.746;10.058;2023-05-10T15:30:14;13.02;;;8.85;;
67278;SDS011;54193;53.746;10.058;2023-05-10T15:33:00;13.63;;;7.90;;
67278;SDS011;54193;53.746;10.058;2023-05-10T15:35:46;12.23;;;7.38;;
67278;SDS011;54193;53.746;10.058;2023-05-10T15:38:31;12.75;;;7.88;;
67278;SDS011;54193;53.746;10.058;2023-05-10T15:41:17;13.10;;;9.27;;
67278;SDS011;54193;53.746;10.058;2023-05-10T15:44:03;11.68;;;7.90;;
67278;SDS011;54193;53.746;10.058;2023-05-10T15:46:49;13.77;;;8.90;;
67278;SDS011;54193;53.746;10.058;2023-05-10T15:49:34;11.70;;;8.65;;
67278;SDS011;54193;53.746;10.058;2023-05-10T15:52:20;12.15;;;8.48;;
67278;SDS011;54193;53.746;10.058;2023-05-10T15:55:06;11.50;;;8.30;;
67278;SDS011;54193;53.746;10.058;2023-05-10T15:57:57;11.57;;;8.40;;
67278;SDS011;54193;53.746;10.058;2023-05-10T16:00:42;12.57;;;8.30;;
67278;SDS011;54193;53.746;10.058;2023-05-10T16:03:28;11.80;;;7.97;;
67278;SDS011;54193;53.746;10.058;2023-05-10T16:06:15;13.13;;;7.63;;
67278;SDS011;54193;53.746;10.058;2023-05-10T16:09:00;11.55;;;7.47;;
67278;SDS011;54193;53.746;10.058;2023-05-10T16:11:46;10.55;;;7.28;;
67278;SDS011;54193;53.746;10.058;2023-05-10T16:14:32;11.23;;;7.70;;
67278;SDS011;54193;53.746;10.058;2023-05-10T16:17:17;11.55;;;7.10;;
67278;SDS011;54193;53.746;10.058;2023-05-10T16:20:04;10.90;;;6.90;;
67278;SDS011;54193;53.746;10.058;2023-05-10T16:22:50;10.88;;;7.10;;
67278;SDS011;54193;53.746;10.058;2023-05-10T16:25:36;9.60;;;6.43;;
67278;SDS011;54193;53.746;10.058;2023-05-10T16:28:22;10.48;;;7.07;;
67278;SDS011;54193;53.746;10.058;2023-05-10T16:31:07;9.68;;;6.55;;
67278;SDS011;54193;53.746;10.058;2023-05-10T16:33:53;10.63;;;6.85;;
67278;SDS011;54193;53.746;10.058;2023-05-10T16:36:39;11.48;;;6.30;;
67278;SDS011;54193;53.746;10.058;2023-05-10T16:39:24;9.60;;;5.97;;